Time;durP1;ratioP1;P1;durP2;ratioP2;P2;SDS_P1;SDS_P2;PMS_P1;PMS_P2;Temp;Humidity;BMP_temperature;BMP_pressure;BME280_temperature;BME280_humidity;BME280_pressure;Samples;Min_cycle;Max_cycle;Signal;HPM_P1;HPM_P2
2023/11/04 00:00:17;;;;;;;4.77;1.33;;;7.60;1.00;;;;;;5099431;28;20226;-79
2023/11/04 00:02:44;;;;;;;3.27;1.20;;;7.50;1.00;;;;;;5091792;28;20210;-80
2023/11/04 00:05:12;;;;;;;4.33;1.70;;;7.50;1.00;;;;;;5089406;28;20257;-81
2023/11/04 00:07:39;;;;;;;3.97;1.40;;;7.60;1.00;;;;;;5104499;28;20205;-82
2023/11/04 00:10:08;;;;;;;5.43;1.63;;;7.60;1.00;;;;;;5103412;28;20232;-81
2023/11/04 00:12:34;;;;;;;7.33;2.03;;;7.70;1.00;;;;;;5104459;28;20209;-80
2023/11/04 00:15:01;;;;;;;5.90;1.53;;;7.70;1.00;;;;;;5104426;28;20197;-80
2023/11/04 00:17:28;;;;;;;6.40;1.60;;;7.70;1.00;;;;;;5096822;28;20242;-79
2023/11/04 00:19:55;;;;;;;8.70;1.63;;;7.60;1.00;;;;;;5087656;28;20233;-80
2023/11/04 00:22:23;;;;;;;6.13;1.43;;;7.40;1.00;;;;;;5089249;28;20562;-81
2023/11/04 00:24:53;;;;;;;3.03;1.20;;;7.60;1.00;;;;;;5086409;28;20256;-81
2023/11/04 00:27:20;;;;;;;6.40;1.70;;;7.50;1.00;;;;;;5085966;28;20211;-80
2023/11/04 00:29:47;;;;;;;5.73;1.50;;;7.50;1.00;;;;;;5085686;28;20237;-79
2023/11/04 00:32:15;;;;;;;4.57;1.13;;;7.40;1.00;;;;;;5084271;28;20203;-82
2023/11/04 00:34:42;;;;;;;7.33;1.77;;;7.40;1.00;;;;;;5084361;28;20615;-82
2023/11/04 00:37:09;;;;;;;3.00;1.37;;;7.30;1.00;;;;;;5083929;28;20205;-81
2023/11/04 00:39:38;;;;;;;2.87;1.47;;;7.40;1.00;;;;;;5086595;28;20621;-83
2023/11/04 00:42:05;;;;;;;6.27;2.27;;;7.40;1.00;;;;;;5103333;28;20301;-83
2023/11/04 00:44:32;;;;;;;4.03;1.53;;;7.20;1.00;;;;;;5094515;28;20198;-82
2023/11/04 00:46:59;;;;;;;6.13;1.30;;;7.30;1.00;;;;;;5082173;28;20217;-81
2023/11/04 00:49:26;;;;;;;5.30;1.43;;;7.30;1.00;;;;;;5096077;28;20736;-81
2023/11/04 00:51:53;;;;;;;4.77;1.17;;;7.30;1.00;;;;;;5090022;28;20202;-82
2023/11/04 00:54:19;;;;;;;2.73;1.27;;;7.20;1.00;;;;;;5081387;28;20213;-82
2023/11/04 00:56:47;;;;;;;4.97;1.50;;;7.20;1.00;;;;;;5098834;28;20202;-81
2023/11/04 00:59:14;;;;;;;6.60;1.20;;;7.20;1.00;;;;;;5082588;28;20404;-82
2023/11/04 01:01:41;;;;;;;7.27;1.70;;;7.20;1.00;;;;;;5085671;28;20205;-81
2023/11/04 01:04:08;;;;;;;6.43;1.07;;;7.10;1.00;;;;;;5081723;28;20202;-81
2023/11/04 01:06:35;;;;;;;4.90;1.70;;;7.10;1.00;;;;;;5089574;28;20293;-82
2023/11/04 01:09:02;;;;;;;6.30;1.30;;;7.10;1.00;;;;;;5086668;28;20629;-81
2023/11/04 01:11:29;;;;;;;5.83;2.67;;;7.10;1.00;;;;;;5085660;28;20207;-81
2023/11/04 01:13:57;;;;;;;3.43;1.30;;;7.00;1.00;;;;;;5083683;28;20273;-82
2023/11/04 01:16:24;;;;;;;5.67;1.13;;;6.90;1.00;;;;;;5103508;28;20224;-79
2023/11/04 01:18:51;;;;;;;5.80;1.27;;;6.80;35.10;;;;;;5095373;28;20208;-82
2023/11/04 01:21:18;;;;;;;6.77;2.93;;;6.70;99.90;;;;;;5095178;28;20722;-81
2023/11/04 01:23:45;;;;;;;9.63;1.73;;;6.70;94.30;;;;;;5104209;28;20273;-81
2023/11/04 01:26:12;;;;;;;7.63;1.90;;;6.70;99.90;;;;;;5084766;28;20226;-82
2023/11/04 01:28:39;;;;;;;2.73;1.10;;;6.80;99.90;;;;;;5093570;28;20219;-83
2023/11/04 01:31:07;;;;;;;6.17;1.70;;;6.70;99.90;;;;;;5102086;28;20225;-80
2023/11/04 01:33:34;;;;;;;3.37;1.20;;;6.70;99.90;;;;;;5104469;28;20243;-82
2023/11/04 01:36:01;;;;;;;6.10;1.47;;;6.80;99.90;;;;;;5103607;28;20205;-82
2023/11/04 01:38:28;;;;;;;7.00;1.90;;;6.60;99.90;;;;;;5103026;28;20684;-82
2023/11/04 01:40:55;;;;;;;3.63;1.30;;;6.70;99.90;;;;;;5102207;28;20316;-82
2023/11/04 01:43:26;;;;;;;4.03;1.70;;;6.80;99.90;;;;;;5096734;28;20564;-81
2023/11/04 01:46:14;;;;;;;2.20;1.20;;;6.90;99.90;;;;;;5082599;28;20717;-81
2023/11/04 01:48:42;;;;;;;3.90;1.30;;;6.90;99.90;;;;;;5084565;28;20241;-83
2023/11/04 01:51:09;;;;;;;5.53;1.30;;;6.90;99.90;;;;;;5102607;28;20229;-83
2023/11/04 01:53:37;;;;;;;4.53;1.10;;;6.80;99.90;;;;;;5103423;28;20205;-82
2023/11/04 01:56:06;;;;;;;5.20;1.53;;;6.80;99.90;;;;;;5102677;28;20225;-81
2023/11/04 01:58:35;;;;;;;3.07;1.33;;;6.80;99.90;;;;;;5103823;28;20239;-81
2023/11/04 02:01:03;;;;;;;4.83;1.50;;;6.80;99.90;;;;;;5103507;28;20789;-83
2023/11/04 02:03:31;;;;;;;5.43;1.37;;;6.80;99.90;;;;;;5104612;28;20210;-81
2023/11/04 02:05:58;;;;;;;3.87;1.47;;;7.00;99.90;;;;;;5083766;28;20687;-81
2023/11/04 02:08:25;;;;;;;6.43;1.47;;;7.20;99.90;;;;;;5083181;28;20202;-80
2023/11/04 02:10:51;;;;;;;5.97;1.53;;;7.00;99.90;;;;;;5095050;28;20312;-81
2023/11/04 02:13:18;;;;;;;4.73;1.40;;;7.00;99.90;;;;;;5104577;28;20288;-83
2023/11/04 02:15:45;;;;;;;4.33;1.60;;;7.00;98.00;;;;;;5102668;28;20296;-80
2023/11/04 02:18:12;;;;;;;5.97;1.30;;;6.90;99.90;;;;;;5102196;28;20197;-82
2023/11/04 02:20:46;;;;;;;5.23;1.40;;;6.90;99.90;;;;;;5102113;28;20221;-80
2023/11/04 02:23:15;;;;;;;3.77;2.27;;;6.90;99.90;;;;;;5102636;28;20198;-79
2023/11/04 02:25:41;;;;;;;4.37;1.70;;;7.00;99.90;;;;;;5101424;28;20213;-80
2023/11/04 02:28:08;;;;;;;5.83;1.40;;;7.20;99.30;;;;;;5097384;28;20198;-80
2023/11/04 02:30:35;;;;;;;3.13;1.20;;;7.00;90.00;;;;;;5098219;28;20236;-82
2023/11/04 02:33:02;;;;;;;5.23;1.70;;;6.90;99.90;;;;;;5088820;28;20216;-81
2023/11/04 02:35:29;;;;;;;2.57;1.27;;;6.90;99.90;;;;;;5088102;28;20215;-81
2023/11/04 02:37:55;;;;;;;2.63;1.50;;;7.00;93.70;;;;;;5081383;28;20206;-80
2023/11/04 02:40:24;;;;;;;5.67;1.60;;;7.00;94.60;;;;;;5091061;28;20309;-81
2023/11/04 02:42:50;;;;;;;3.43;1.40;;;7.00;92.70;;;;;;5100914;28;20202;-83
2023/11/04 02:45:17;;;;;;;3.93;1.53;;;6.90;99.90;;;;;;5081759;28;20657;-82
2023/11/04 02:47:44;;;;;;;4.10;1.30;;;7.00;99.90;;;;;;5082339;28;20737;-80
2023/11/04 02:50:13;;;;;;;2.67;1.43;;;7.00;88.40;;;;;;5082210;28;20300;-82
2023/11/04 02:52:40;;;;;;;3.40;1.43;;;7.00;99.90;;;;;;5096706;28;20218;-81
2023/11/04 02:55:07;;;;;;;5.43;1.60;;;6.70;99.90;;;;;;5102724;28;20201;-81
2023/11/04 02:57:36;;;;;;;2.37;1.00;;;6.80;99.90;;;;;;5102676;28;20213;-79
2023/11/04 03:00:04;;;;;;;2.33;1.83;;;6.80;99.90;;;;;;5102436;28;20226;-82
2023/11/04 03:02:30;;;;;;;5.13;1.33;;;6.90;99.90;;;;;;5094966;28;20591;-80
2023/11/04 03:04:57;;;;;;;2.43;1.10;;;6.90;99.90;;;;;;5081907;28;20221;-80
2023/11/04 03:07:24;;;;;;;3.87;1.53;;;6.90;99.90;;;;;;5086523;28;20197;-82
2023/11/04 03:09:51;;;;;;;5.77;1.07;;;6.80;99.90;;;;;;5098636;28;20244;-79
2023/11/04 03:12:18;;;;;;;4.23;1.40;;;6.70;99.90;;;;;;5097941;28;20202;-80
2023/11/04 03:14:46;;;;;;;4.77;1.43;;;6.70;99.90;;;;;;5079540;28;20708;-82
2023/11/04 03:17:14;;;;;;;2.33;1.27;;;6.60;99.90;;;;;;5076964;28;20252;-80
2023/11/04 03:19:43;;;;;;;6.63;1.67;;;6.60;99.90;;;;;;5086584;28;20232;-82
2023/11/04 03:22:10;;;;;;;4.37;1.03;;;6.60;99.90;;;;;;5098787;28;20198;-81
2023/11/04 03:24:37;;;;;;;4.97;1.33;;;6.60;99.90;;;;;;5079222;28;20202;-82
2023/11/04 03:27:04;;;;;;;9.40;2.90;;;6.40;1.00;;;;;;5095035;28;20247;-82
2023/11/04 03:29:31;;;;;;;4.13;1.40;;;6.50;99.90;;;;;;5099183;28;20584;-82
2023/11/04 03:32:00;;;;;;;3.47;1.57;;;6.40;99.90;;;;;;5095396;28;20202;-79
2023/11/04 03:34:26;;;;;;;5.93;1.53;;;6.30;1.00;;;;;;5078705;28;20651;-81
2023/11/04 03:36:53;;;;;;;4.80;1.60;;;6.30;1.00;;;;;;5079353;28;20665;-81
2023/11/04 03:39:20;;;;;;;5.60;1.43;;;6.20;1.00;;;;;;5082337;28;20218;-78
2023/11/04 03:41:47;;;;;;;3.00;1.50;;;6.10;1.00;;;;;;5083252;28;20199;-81
2023/11/04 03:44:14;;;;;;;6.73;1.80;;;6.10;1.00;;;;;;5103582;28;20224;-80
2023/11/04 03:46:41;;;;;;;3.70;1.50;;;6.10;1.00;;;;;;5103114;28;20201;-81
2023/11/04 03:49:09;;;;;;;4.37;1.30;;;6.10;1.00;;;;;;5103397;28;20213;-81
2023/11/04 03:51:36;;;;;;;5.23;1.90;;;6.00;1.00;;;;;;5103405;28;20225;-80
2023/11/04 03:54:03;;;;;;;4.37;1.50;;;6.00;1.00;;;;;;5085033;28;20203;-78
2023/11/04 03:56:30;;;;;;;3.80;1.90;;;6.00;1.00;;;;;;5091661;28;20207;-81
2023/11/04 03:58:57;;;;;;;5.83;1.60;;;6.00;1.00;;;;;;5103483;28;20305;-80
2023/11/04 04:01:24;;;;;;;3.97;1.10;;;5.90;1.00;;;;;;5087903;28;20199;-81
2023/11/04 04:03:51;;;;;;;4.03;1.33;;;5.90;1.00;;;;;;5088061;28;20286;-81
2023/11/04 04:06:20;;;;;;;2.50;1.40;;;5.80;1.00;;;;;;5083542;28;20240;-80
2023/11/04 04:08:47;;;;;;;3.60;1.27;;;6.00;1.00;;;;;;5103251;28;20679;-80
2023/11/04 04:11:20;;;;;;;5.80;1.67;;;6.00;1.00;;;;;;5103716;28;20721;-81
2023/11/04 04:13:47;;;;;;;2.50;1.40;;;6.00;1.00;;;;;;5094854;28;20732;-81
2023/11/04 04:16:14;;;;;;;5.57;1.70;;;6.00;1.00;;;;;;5104162;28;20265;-79
2023/11/04 04:18:40;;;;;;;6.67;1.57;;;6.10;1.00;;;;;;5084008;28;20280;-81
2023/11/04 04:21:07;;;;;;;3.97;1.40;;;5.90;1.00;;;;;;5096910;28;20312;-80
2023/11/04 04:23:35;;;;;;;3.03;1.30;;;6.00;1.00;;;;;;5104095;28;20212;-80
2023/11/04 04:26:02;;;;;;;4.53;1.53;;;5.90;1.00;;;;;;5103018;28;20201;-80
2023/11/04 04:28:29;;;;;;;4.50;2.00;;;6.20;1.00;;;;;;5102916;28;20232;-81
2023/11/04 04:30:56;;;;;;;3.20;1.57;;;6.20;1.00;;;;;;5083282;28;20229;-78
2023/11/04 04:33:23;;;;;;;6.13;1.70;;;6.40;1.00;;;;;;5100185;28;20212;-79
2023/11/04 04:35:49;;;;;;;4.67;1.70;;;6.50;1.00;;;;;;5103638;28;20231;-80
2023/11/04 04:38:16;;;;;;;5.10;1.30;;;6.60;1.00;;;;;;5099115;28;20279;-79
2023/11/04 04:40:44;;;;;;;3.87;1.67;;;6.50;1.00;;;;;;5102942;28;20285;-79
2023/11/04 04:43:11;;;;;;;2.60;1.40;;;6.50;1.00;;;;;;5104291;28;20213;-81
2023/11/04 04:45:38;;;;;;;4.07;1.90;;;6.50;1.00;;;;;;5095414;28;20288;-81
2023/11/04 04:48:05;;;;;;;2.97;1.90;;;6.50;1.00;;;;;;5098156;28;20206;-79
2023/11/04 04:50:32;;;;;;;4.77;1.73;;;6.40;1.00;;;;;;5090454;28;20232;-80
2023/11/04 04:52:59;;;;;;;5.43;1.73;;;6.20;1.00;;;;;;5084826;28;20206;-79
2023/11/04 04:55:25;;;;;;;3.23;1.70;;;6.50;1.00;;;;;;5089567;28;20206;-80
2023/11/04 04:57:55;;;;;;;3.70;1.90;;;6.50;1.00;;;;;;5095402;28;20202;-79
2023/11/04 05:00:22;;;;;;;3.67;1.87;;;6.60;1.00;;;;;;5078347;28;20317;-80
2023/11/04 05:02:49;;;;;;;4.37;1.60;;;6.60;1.00;;;;;;5098454;28;20201;-78
2023/11/04 05:05:16;;;;;;;7.73;1.97;;;6.60;1.00;;;;;;5090115;28;20198;-79
2023/11/04 05:07:43;;;;;;;4.20;2.00;;;6.50;1.00;;;;;;5100034;28;20213;-80
2023/11/04 05:10:11;;;;;;;3.43;1.90;;;6.50;1.00;;;;;;5100121;28;20225;-81
2023/11/04 05:12:38;;;;;;;4.13;1.63;;;6.40;1.00;;;;;;5093344;28;20206;-80
2023/11/04 05:15:08;;;;;;;5.63;2.07;;;6.50;1.00;;;;;;5080788;28;20233;-80
2023/11/04 05:17:35;;;;;;;2.90;1.80;;;6.30;1.00;;;;;;5089474;28;20215;-80
2023/11/04 05:20:04;;;;;;;5.67;2.30;;;6.20;1.00;;;;;;5099623;28;20272;-79
2023/11/04 05:22:30;;;;;;;3.63;1.83;;;6.30;1.00;;;;;;5091639;28;20206;-80
2023/11/04 05:24:57;;;;;;;6.53;1.90;;;6.40;1.00;;;;;;5092668;28;20240;-82
2023/11/04 05:27:24;;;;;;;3.63;1.77;;;6.50;1.00;;;;;;5101694;28;20288;-79
2023/11/04 05:29:52;;;;;;;5.17;2.33;;;6.50;1.00;;;;;;5084301;28;20301;-80
2023/11/04 05:32:20;;;;;;;6.53;2.17;;;6.30;1.00;;;;;;5079451;28;20323;-80
2023/11/04 05:34:48;;;;;;;4.83;1.80;;;6.40;1.00;;;;;;5100461;28;20206;-79
2023/11/04 05:37:15;;;;;;;5.90;2.03;;;6.30;1.00;;;;;;5101665;28;20608;-81
2023/11/04 05:39:42;;;;;;;2.87;1.97;;;6.30;1.00;;;;;;5083582;28;20321;-80
2023/11/04 05:42:09;;;;;;;4.70;2.00;;;6.30;1.00;;;;;;5095513;28;20661;-80
2023/11/04 05:44:36;;;;;;;4.10;1.53;;;6.40;1.00;;;;;;5080798;28;20210;-81
2023/11/04 05:47:03;;;;;;;4.93;2.00;;;6.50;1.00;;;;;;5093099;28;20768;-82
2023/11/04 05:49:31;;;;;;;2.53;1.77;;;6.60;1.00;;;;;;5090428;28;20222;-81
2023/11/04 05:51:57;;;;;;;2.47;1.50;;;6.80;1.00;;;;;;5093677;28;20229;-81
2023/11/04 05:54:24;;;;;;;3.40;1.67;;;6.80;1.00;;;;;;5102254;28;20205;-80
2023/11/04 05:56:51;;;;;;;1.70;1.60;;;7.10;1.00;;;;;;5103282;28;20308;-81
2023/11/04 05:59:18;;;;;;;2.47;1.40;;;6.90;1.00;;;;;;5090897;28;20320;-80
2023/11/04 06:01:45;;;;;;;4.83;2.07;;;6.90;1.00;;;;;;5084882;28;20208;-80
2023/11/04 06:04:11;;;;;;;2.20;1.60;;;7.00;1.00;;;;;;5095794;28;20205;-81
2023/11/04 06:06:40;;;;;;;3.40;1.53;;;6.90;1.00;;;;;;5094467;28;20205;-80
2023/11/04 06:09:07;;;;;;;3.57;1.83;;;7.10;1.00;;;;;;5086276;28;20209;-80
2023/11/04 06:11:34;;;;;;;4.57;1.70;;;7.20;1.00;;;;;;5085917;28;20574;-81
2023/11/04 06:14:01;;;;;;;2.20;1.43;;;7.10;1.00;;;;;;5091146;28;20572;-80
2023/11/04 06:16:33;;;;;;;5.40;1.40;;;7.20;1.00;;;;;;5083768;28;20278;-80
2023/11/04 06:19:00;;;;;;;2.40;1.60;;;7.10;1.00;;;;;;5087501;28;20213;-80
2023/11/04 06:21:28;;;;;;;2.70;1.60;;;7.10;1.00;;;;;;5094939;28;20233;-80
2023/11/04 06:23:56;;;;;;;2.50;1.60;;;7.30;99.90;;;;;;5086576;28;20205;-81
2023/11/04 06:26:23;;;;;;;3.90;1.70;;;7.20;99.90;;;;;;5086279;28;20202;-81
2023/11/04 06:28:50;;;;;;;2.23;1.60;;;7.20;99.90;;;;;;5082450;28;20201;-80
2023/11/04 06:31:20;;;;;;;3.47;1.40;;;7.20;99.90;;;;;;5078801;28;20232;-81
2023/11/04 06:33:47;;;;;;;3.03;1.70;;;7.20;99.90;;;;;;5084613;28;20212;-80
2023/11/04 06:36:13;;;;;;;2.63;1.40;;;7.20;99.90;;;;;;5086118;28;20300;-81
2023/11/04 06:38:40;;;;;;;2.70;1.53;;;7.20;99.90;;;;;;5086519;28;20210;-80
2023/11/04 06:41:16;;;;;;;1.90;1.63;;;7.30;99.90;;;;;;5088490;28;20230;-80
2023/11/04 06:43:43;;;;;;;2.93;1.80;;;7.40;99.90;;;;;;5083564;28;20844;-79
2023/11/04 06:46:10;;;;;;;3.50;1.90;;;7.50;99.90;;;;;;5082621;28;21977;-80
2023/11/04 06:48:37;;;;;;;6.10;1.83;;;7.50;99.90;;;;;;5094875;28;20201;-81
2023/11/04 06:51:04;;;;;;;2.33;1.43;;;7.50;99.90;;;;;;5093400;28;20241;-79
2023/11/04 06:53:31;;;;;;;3.53;1.50;;;7.50;99.90;;;;;;5095228;28;20264;-81
2023/11/04 06:56:00;;;;;;;3.43;1.60;;;7.50;99.90;;;;;;5098987;28;20201;-79
2023/11/04 06:58:28;;;;;;;3.00;1.70;;;7.60;99.90;;;;;;5097211;28;20555;-82
2023/11/04 07:00:55;;;;;;;4.27;2.00;;;7.70;99.90;;;;;;5092728;28;20594;-80
2023/11/04 07:03:22;;;;;;;5.93;2.23;;;7.80;99.90;;;;;;5090375;28;20228;-81
2023/11/04 07:05:49;;;;;;;2.23;1.60;;;7.90;99.90;;;;;;5091137;28;20206;-80
2023/11/04 07:08:16;;;;;;;3.00;1.87;;;7.90;99.90;;;;;;5092652;28;20206;-80
2023/11/04 07:10:43;;;;;;;2.00;1.40;;;7.90;99.90;;;;;;5077114;28;20308;-81
2023/11/04 07:13:12;;;;;;;1.97;1.57;;;8.00;99.90;;;;;;5079710;28;20209;-80
2023/11/04 07:15:43;;;;;;;2.10;1.63;;;8.00;99.90;;;;;;5084752;28;20198;-78
2023/11/04 07:18:10;;;;;;;3.57;1.50;;;8.00;99.90;;;;;;5097234;28;20213;-78
2023/11/04 07:20:39;;;;;;;2.43;1.63;;;8.00;99.90;;;;;;5092085;28;20217;-79
2023/11/04 07:23:07;;;;;;;2.17;1.43;;;8.20;99.90;;;;;;5100346;28;20621;-79
2023/11/04 07:25:35;;;;;;;2.67;1.80;;;8.20;99.90;;;;;;5089295;28;20202;-79
2023/11/04 07:28:02;;;;;;;1.97;1.40;;;8.20;99.90;;;;;;5090141;28;20205;-81
2023/11/04 07:30:33;;;;;;;2.17;1.30;;;8.20;99.90;;;;;;5088603;28;20640;-80
2023/11/04 07:33:01;;;;;;;2.53;1.73;;;8.20;99.90;;;;;;5089675;28;20762;-80
2023/11/04 07:35:28;;;;;;;1.67;1.20;;;8.30;99.90;;;;;;5087620;28;20214;-79
2023/11/04 07:37:56;;;;;;;2.57;1.60;;;8.30;99.90;;;;;;5088706;28;21434;-81
2023/11/04 07:40:24;;;;;;;4.07;1.50;;;8.40;99.90;;;;;;5085272;28;20792;-80
2023/11/04 07:42:54;;;;;;;2.17;1.40;;;8.50;92.30;;;;;;5089190;28;20702;-81
2023/11/04 07:45:20;;;;;;;3.43;1.23;;;8.60;99.90;;;;;;5091799;28;20280;-81
2023/11/04 07:47:47;;;;;;;1.47;1.17;;;8.60;99.90;;;;;;5098527;28;20205;-82
2023/11/04 07:50:16;;;;;;;2.47;1.50;;;8.50;92.60;;;;;;5086866;28;20237;-82
2023/11/04 07:52:43;;;;;;;3.83;1.33;;;8.50;99.90;;;;;;5086492;28;20245;-81
2023/11/04 07:55:11;;;;;;;1.27;1.17;;;8.50;93.00;;;;;;5089870;28;20210;-80
2023/11/04 07:57:38;;;;;;;2.17;1.67;;;8.40;67.80;;;;;;5088474;28;20589;-82
2023/11/04 08:00:07;;;;;;;1.93;1.53;;;8.40;86.40;;;;;;5092581;28;20654;-81
2023/11/04 08:02:35;;;;;;;1.57;1.43;;;8.50;96.70;;;;;;5094322;28;20205;-82
2023/11/04 08:05:02;;;;;;;1.80;1.20;;;8.50;71.80;;;;;;5093660;28;20206;-80
2023/11/04 08:07:30;;;;;;;1.60;1.20;;;8.80;59.80;;;;;;5089472;28;20214;-81
2023/11/04 08:09:57;;;;;;;2.10;1.63;;;8.80;62.00;;;;;;5097635;28;20222;-81
2023/11/04 08:12:24;;;;;;;3.37;1.57;;;9.40;4.10;;;;;;5089027;28;20229;-80
2023/11/04 08:14:51;;;;;;;1.07;0.97;;;9.20;1.00;;;;;;5087030;28;20208;-82
2023/11/04 08:17:18;;;;;;;2.83;1.30;;;9.10;1.00;;;;;;5086472;28;20288;-80
2023/11/04 08:19:46;;;;;;;3.27;1.30;;;9.30;1.00;;;;;;5086126;28;20222;-81
2023/11/04 08:22:15;;;;;;;3.33;1.27;;;9.20;1.00;;;;;;5089041;28;20206;-80
2023/11/04 08:24:44;;;;;;;2.43;1.10;;;9.10;1.00;;;;;;5096493;28;20210;-81
2023/11/04 08:27:12;;;;;;;2.50;1.20;;;9.20;1.00;;;;;;5092378;28;20202;-81
2023/11/04 08:29:40;;;;;;;1.13;1.03;;;9.30;1.00;;;;;;5085138;28;20682;-80
2023/11/04 08:32:07;;;;;;;3.63;2.27;;;9.40;1.00;;;;;;5085933;28;20689;-82
2023/11/04 08:34:35;;;;;;;1.90;1.30;;;10.00;1.00;;;;;;5094492;28;20220;-82
2023/11/04 08:37:02;;;;;;;3.10;1.27;;;10.30;1.00;;;;;;5086708;28;20210;-82
2023/11/04 08:39:29;;;;;;;1.83;1.37;;;10.30;1.00;;;;;;5093803;28;20314;-81
2023/11/04 08:41:58;;;;;;;1.40;1.30;;;10.80;1.00;;;;;;5089465;28;20206;-80
2023/11/04 08:44:24;;;;;;;1.23;0.97;;;10.40;1.00;;;;;;5089837;28;20645;-81
2023/11/04 08:46:52;;;;;;;3.00;1.37;;;10.30;1.00;;;;;;5087285;28;20580;-81
2023/11/04 08:49:19;;;;;;;2.23;1.47;;;10.20;1.00;;;;;;5086006;28;20238;-81
2023/11/04 08:51:45;;;;;;;1.27;1.13;;;10.40;1.00;;;;;;5087612;28;20232;-80
2023/11/04 08:54:13;;;;;;;5.10;1.17;;;10.40;1.00;;;;;;5097595;28;20206;-81
2023/11/04 08:56:40;;;;;;;2.80;1.43;;;10.20;1.00;;;;;;5088562;28;20201;-82
2023/11/04 08:59:08;;;;;;;2.83;1.40;;;9.90;1.00;;;;;;5088075;28;20602;-82
2023/11/04 09:01:35;;;;;;;2.10;1.23;;;9.70;1.00;;;;;;5078648;28;20264;-81
2023/11/04 09:04:02;;;;;;;2.53;1.40;;;9.70;1.00;;;;;;5089085;28;20237;-82
2023/11/04 09:06:29;;;;;;;2.03;1.50;;;9.70;1.00;;;;;;5086418;28;20291;-81
2023/11/04 09:08:56;;;;;;;2.07;1.40;;;9.70;1.00;;;;;;5087717;28;20212;-82
2023/11/04 09:11:23;;;;;;;4.73;1.30;;;9.90;1.00;;;;;;5089518;28;20208;-81
2023/11/04 09:13:50;;;;;;;1.43;1.10;;;10.00;1.00;;;;;;5084922;28;20209;-82
2023/11/04 09:16:18;;;;;;;2.43;1.37;;;10.10;1.00;;;;;;5084743;28;20210;-82
2023/11/04 09:18:44;;;;;;;1.37;1.27;;;10.10;1.00;;;;;;5095282;28;20213;-81
2023/11/04 09:21:11;;;;;;;1.60;1.03;;;10.20;1.00;;;;;;5088779;28;20225;-81
2023/11/04 09:23:38;;;;;;;1.67;1.30;;;10.20;1.00;;;;;;5086607;28;20633;-81
2023/11/04 09:26:05;;;;;;;4.00;1.20;;;10.30;1.00;;;;;;5091494;28;20210;-81
2023/11/04 09:28:32;;;;;;;2.10;1.23;;;10.40;1.00;;;;;;5086638;28;20218;-81
2023/11/04 09:31:00;;;;;;;2.00;1.30;;;10.50;1.00;;;;;;5084408;28;20285;-82
2023/11/04 09:33:30;;;;;;;1.40;1.30;;;10.50;1.00;;;;;;5093594;28;20291;-82
2023/11/04 09:35:57;;;;;;;1.00;0.90;;;10.30;1.00;;;;;;5088969;28;20652;-81
2023/11/04 09:38:26;;;;;;;1.00;1.00;;;10.50;1.00;;;;;;5088391;28;20277;-81
2023/11/04 09:40:53;;;;;;;2.30;1.30;;;10.50;1.00;;;;;;5096796;28;20275;-81
2023/11/04 09:43:21;;;;;;;1.50;1.23;;;10.40;1.00;;;;;;5095822;28;20197;-78
2023/11/04 09:45:48;;;;;;;0.90;0.90;;;10.50;1.00;;;;;;5085050;28;20210;-82
2023/11/04 09:48:15;;;;;;;1.67;0.87;;;10.50;1.00;;;;;;5082547;28;20221;-82
2023/11/04 09:50:43;;;;;;;2.53;1.00;;;10.50;1.00;;;;;;5086820;28;20237;-82
2023/11/04 09:53:15;;;;;;;1.10;1.00;;;10.50;1.00;;;;;;5088675;28;20257;-81
2023/11/04 09:55:43;;;;;;;3.17;1.17;;;10.50;1.00;;;;;;5096704;28;20202;-82
2023/11/04 09:58:12;;;;;;;1.10;0.80;;;10.50;1.00;;;;;;5091487;28;20269;-82
2023/11/04 10:00:51;;;;;;;1.10;0.93;;;10.50;1.00;;;;;;5084689;28;20815;-82
2023/11/04 10:03:18;;;;;;;2.00;1.20;;;10.60;1.00;;;;;;5088028;28;20205;-82
2023/11/04 10:05:46;;;;;;;1.40;1.10;;;10.60;1.00;;;;;;5086704;28;20217;-81
2023/11/04 10:08:13;;;;;;;1.40;1.10;;;10.60;1.00;;;;;;5087648;28;20210;-82
2023/11/04 10:10:40;;;;;;;1.00;0.90;;;10.60;1.00;;;;;;5095259;28;20225;-82
2023/11/04 10:13:07;;;;;;;1.10;1.00;;;10.80;1.00;;;;;;5096609;28;20283;-81
2023/11/04 10:15:34;;;;;;;1.63;0.90;;;10.70;1.00;;;;;;5087908;28;20206;-81
2023/11/04 10:18:01;;;;;;;2.83;1.17;;;10.80;1.00;;;;;;5087077;28;20550;-81
2023/11/04 10:20:28;;;;;;;2.67;0.83;;;10.70;1.00;;;;;;5086663;28;20293;-81
2023/11/04 10:22:56;;;;;;;1.63;1.00;;;10.70;1.00;;;;;;5083683;28;20224;-81
2023/11/04 10:25:23;;;;;;;0.70;0.70;;;10.80;1.00;;;;;;5083558;28;20297;-81
2023/11/04 10:27:50;;;;;;;1.10;1.00;;;10.80;1.00;;;;;;5091199;28;20214;-81
2023/11/04 10:30:17;;;;;;;0.77;0.70;;;10.70;1.00;;;;;;5082704;28;20253;-80
2023/11/04 10:32:48;;;;;;;1.37;0.93;;;10.70;1.00;;;;;;5086585;28;20280;-81
2023/11/04 10:35:18;;;;;;;3.40;1.03;;;10.70;1.00;;;;;;5096165;28;20209;-81
2023/11/04 10:37:47;;;;;;;1.60;0.97;;;10.60;1.00;;;;;;5085946;28;20209;-82
2023/11/04 10:40:16;;;;;;;2.03;1.00;;;10.70;1.00;;;;;;5089373;28;20232;-82
2023/11/04 10:42:48;;;;;;;2.30;0.80;;;11.30;1.00;;;;;;5086808;28;20198;-83
2023/11/04 10:45:19;;;;;;;0.70;0.70;;;11.40;1.00;;;;;;5086668;28;20201;-80
2023/11/04 10:47:55;;;;;;;1.60;0.80;;;11.30;1.00;;;;;;5086544;28;20269;-81
2023/11/04 10:50:26;;;;;;;2.57;0.70;;;11.20;1.00;;;;;;5088542;28;20238;-82
2023/11/04 10:53:01;;;;;;;0.90;0.90;;;11.00;1.00;;;;;;5084286;28;20317;-83
2023/11/04 10:55:37;;;;;;;1.83;0.60;;;11.00;1.00;;;;;;5091870;28;20205;-81
2023/11/04 10:58:07;;;;;;;0.97;0.70;;;11.00;1.00;;;;;;5083962;28;20233;-82
2023/11/04 11:00:36;;;;;;;1.73;0.80;;;11.00;1.00;;;;;;5076048;28;20218;-83
2023/11/04 11:03:03;;;;;;;1.57;0.80;;;11.00;1.00;;;;;;5076390;28;20234;-82
2023/11/04 11:05:31;;;;;;;0.77;0.77;;;11.00;1.00;;;;;;5075326;28;20263;-83
2023/11/04 11:07:58;;;;;;;1.63;1.13;;;11.00;1.00;;;;;;5075801;28;20221;-82
2023/11/04 11:10:34;;;;;;;1.30;0.70;;;11.00;1.00;;;;;;5075413;28;20222;-83
2023/11/04 11:13:07;;;;;;;0.77;0.57;;;11.10;1.00;;;;;;5076128;28;20296;-83
2023/11/04 11:15:35;;;;;;;0.73;0.60;;;11.00;1.00;;;;;;5076069;28;20277;-82
2023/11/04 11:18:02;;;;;;;0.80;0.80;;;11.00;1.00;;;;;;5075853;28;20206;-83
2023/11/04 11:20:29;;;;;;;0.77;0.77;;;10.90;1.00;;;;;;5092471;28;20224;-82
2023/11/04 11:22:58;;;;;;;1.37;0.57;;;10.90;1.00;;;;;;5096740;28;20293;-83
2023/11/04 11:25:33;;;;;;;0.60;0.60;;;10.90;1.00;;;;;;5095886;28;20656;-83
2023/11/04 11:28:01;;;;;;;0.73;0.60;;;10.90;1.00;;;;;;5085065;28;20205;-79
2023/11/04 11:30:37;;;;;;;1.70;0.70;;;11.00;1.00;;;;;;5078548;28;20220;-82
2023/11/04 11:33:08;;;;;;;1.40;0.70;;;11.10;1.00;;;;;;5075558;28;20316;-82
2023/11/04 11:35:53;;;;;;;1.13;0.70;;;11.10;1.00;;;;;;5093285;28;20202;-81
2023/11/04 11:38:20;;;;;;;0.87;0.60;;;11.20;1.00;;;;;;5096256;28;20205;-82
2023/11/04 11:40:49;;;;;;;1.90;0.60;;;11.20;1.00;;;;;;5096078;28;20221;-81
2023/11/04 11:43:18;;;;;;;0.77;0.57;;;11.20;1.00;;;;;;5095957;28;20225;-81
2023/11/04 11:45:45;;;;;;;0.67;0.67;;;11.20;1.00;;;;;;5095707;28;20209;-82
2023/11/04 11:48:12;;;;;;;2.23;0.60;;;11.10;1.00;;;;;;5086223;28;20205;-83
2023/11/04 11:50:41;;;;;;;0.57;0.50;;;11.20;1.00;;;;;;5095137;28;20264;-81
2023/11/04 11:53:08;;;;;;;0.53;0.53;;;11.20;1.00;;;;;;5089206;28;20229;-82
2023/11/04 11:55:35;;;;;;;0.90;0.70;;;11.40;1.00;;;;;;5075484;28;20297;-83
2023/11/04 11:58:03;;;;;;;0.53;0.53;;;11.50;1.00;;;;;;5094872;28;20269;-83
2023/11/04 12:00:30;;;;;;;0.90;0.77;;;11.50;1.00;;;;;;5098173;28;20584;-83
2023/11/04 12:02:57;;;;;;;0.70;0.70;;;11.80;1.00;;;;;;5079144;28;20225;-82
2023/11/04 12:05:24;;;;;;;3.93;1.40;;;11.70;1.00;;;;;;5077954;28;20667;-82
2023/11/04 12:07:51;;;;;;;2.00;0.70;;;11.60;1.00;;;;;;5077730;28;20293;-84
2023/11/04 12:10:18;;;;;;;0.60;0.60;;;11.60;1.00;;;;;;5083901;28;20308;-82
2023/11/04 12:12:46;;;;;;;1.17;0.80;;;12.00;1.00;;;;;;5087929;28;20308;-83
2023/11/04 12:15:14;;;;;;;1.20;0.70;;;11.90;1.00;;;;;;5078464;28;20212;-83
2023/11/04 12:17:42;;;;;;;0.80;0.60;;;11.70;1.00;;;;;;5087680;28;20204;-83
2023/11/04 12:20:10;;;;;;;1.40;0.70;;;11.50;1.00;;;;;;5097206;28;20304;-83
2023/11/04 12:22:37;;;;;;;0.67;0.67;;;11.30;1.00;;;;;;5097853;28;20284;-83
2023/11/04 12:25:07;;;;;;;2.33;1.27;;;11.10;1.00;;;;;;5098591;28;20198;-83
2023/11/04 12:27:34;;;;;;;1.80;0.73;;;11.00;1.00;;;;;;5098654;28;20573;-82
2023/11/04 12:30:00;;;;;;;1.03;0.70;;;10.90;1.00;;;;;;5098265;28;20256;-84
2023/11/04 12:32:34;;;;;;;2.00;0.57;;;10.90;1.00;;;;;;5095943;28;20212;-82
2023/11/04 12:35:01;;;;;;;3.00;0.90;;;10.90;1.00;;;;;;5097708;28;20243;-82
2023/11/04 12:37:28;;;;;;;1.83;0.80;;;11.10;1.00;;;;;;5097139;28;20224;-83
2023/11/04 12:39:55;;;;;;;1.90;0.73;;;11.10;1.00;;;;;;5096581;28;20225;-82
2023/11/04 12:42:22;;;;;;;2.30;0.90;;;11.20;1.00;;;;;;5089621;28;20610;-83
2023/11/04 12:44:50;;;;;;;1.23;0.80;;;11.10;1.00;;;;;;5078731;28;20225;-84
2023/11/04 12:47:24;;;;;;;1.40;0.70;;;11.20;1.00;;;;;;5086974;28;20221;-83
2023/11/04 12:49:53;;;;;;;3.43;0.77;;;11.40;1.00;;;;;;5084890;28;20233;-83
2023/11/04 12:52:20;;;;;;;2.00;1.00;;;11.50;1.00;;;;;;5076630;28;20293;-83
2023/11/04 12:54:48;;;;;;;0.73;0.70;;;11.80;1.00;;;;;;5091426;28;20243;-82
2023/11/04 12:57:15;;;;;;;1.80;0.50;;;11.80;1.00;;;;;;5097078;28;20202;-84
2023/11/04 12:59:42;;;;;;;0.60;0.60;;;11.90;1.00;;;;;;5096656;28;20222;-83
2023/11/04 13:02:09;;;;;;;1.50;0.60;;;12.20;1.00;;;;;;5096667;28;20612;-82